createdAt,value
2023-05-09T00:00:18.071Z,4.60
2023-05-09T00:02:47.147Z,4.10
2023-05-09T00:05:16.571Z,3.67
2023-05-09T00:07:45.532Z,4.20
2023-05-09T00:10:16.470Z,3.90
2023-05-09T00:12:47.585Z,4.40
2023-05-09T00:15:16.767Z,3.80
2023-05-09T00:17:46.235Z,4.07
2023-05-09T00:20:14.974Z,4.07
2023-05-09T00:22:43.870Z,4.67
2023-05-09T00:25:13.111Z,4.10
2023-05-09T00:27:42.283Z,3.80
2023-05-09T00:30:13.282Z,4.70
2023-05-09T00:32:41.949Z,5.67
2023-05-09T00:35:11.275Z,4.87
2023-05-09T00:37:40.203Z,4.27
2023-05-09T00:40:09.821Z,3.83
2023-05-09T00:42:39.043Z,3.93
2023-05-09T00:45:08.891Z,4.30
2023-05-09T00:47:39.904Z,3.73
2023-05-09T00:50:11.277Z,3.87
2023-05-09T00:52:40.597Z,4.20
2023-05-09T00:55:10.397Z,4.83
2023-05-09T00:57:38.889Z,4.30
2023-05-09T01:00:13.440Z,3.97
2023-05-09T01:02:45.221Z,3.93
2023-05-09T01:05:14.633Z,4.57
2023-05-09T01:07:48.175Z,5.20
2023-05-09T01:10:23.370Z,4.70
2023-05-09T01:12:57.687Z,5.77
2023-05-09T01:15:31.156Z,4.37
2023-05-09T01:18:11.453Z,3.90
2023-05-09T01:20:42.549Z,4.90
2023-05-09T01:23:23.400Z,4.33
2023-05-09T01:25:57.485Z,4.30
2023-05-09T01:28:37.042Z,4.57
2023-05-09T01:31:08.363Z,3.63
2023-05-09T01:33:40.911Z,3.87
2023-05-09T01:36:14.744Z,4.40
2023-05-09T01:38:44.323Z,4.80
2023-05-09T01:41:13.765Z,4.20
2023-05-09T01:43:43.079Z,4.50
2023-05-09T01:46:15.025Z,3.90
2023-05-09T01:48:43.975Z,3.60
2023-05-09T01:51:15.014Z,4.30
2023-05-09T01:53:44.234Z,4.83
2023-05-09T01:56:13.860Z,4.10
2023-05-09T01:58:43.288Z,4.50
2023-05-09T02:01:14.964Z,4.40
2023-05-09T02:03:47.192Z,4.00
2023-05-09T02:06:16.510Z,5.57
2023-05-09T02:08:45.986Z,5.20
2023-05-09T02:11:14.853Z,4.70
2023-05-09T02:13:43.758Z,4.43
2023-05-09T02:16:13.681Z,3.93
2023-05-09T02:18:42.819Z,4.37
2023-05-09T02:21:11.929Z,4.97
2023-05-09T02:23:40.863Z,4.37
2023-05-09T02:26:09.847Z,3.60
2023-05-09T02:28:39.350Z,3.97
2023-05-09T02:31:08.240Z,4.60
2023-05-09T02:33:39.833Z,4.83
2023-05-09T02:36:09.325Z,4.13
2023-05-09T02:38:38.391Z,4.87
2023-05-09T02:41:07.391Z,5.40
2023-05-09T02:43:36.483Z,4.47
2023-05-09T02:46:05.049Z,4.53
2023-05-09T02:48:33.346Z,4.70
2023-05-09T02:51:04.586Z,4.40
2023-05-09T02:53:33.654Z,4.80
2023-05-09T02:56:02.045Z,4.97
2023-05-09T02:58:30.900Z,4.50
2023-05-09T03:01:00.703Z,4.60
2023-05-09T03:03:30.137Z,5.03
2023-05-09T03:05:58.857Z,4.67
2023-05-09T03:08:29.051Z,4.97
2023-05-09T03:10:57.393Z,4.60
2023-05-09T03:13:26.715Z,4.53
2023-05-09T03:15:55.346Z,4.30
2023-05-09T03:18:24.437Z,4.80
2023-05-09T03:20:53.187Z,4.63
2023-05-09T03:23:24.280Z,5.10
2023-05-09T03:25:54.031Z,4.93
2023-05-09T03:28:22.914Z,5.13
2023-05-09T03:30:51.831Z,5.27
2023-05-09T03:33:20.660Z,4.20
2023-05-09T03:35:49.352Z,4.43
2023-05-09T03:38:18.081Z,3.60
2023-05-09T03:40:46.749Z,5.03
2023-05-09T03:43:16.982Z,5.57
2023-05-09T03:45:45.886Z,5.13
2023-05-09T03:48:14.919Z,5.40
2023-05-09T03:50:43.648Z,4.77
2023-05-09T03:53:12.561Z,4.60
2023-05-09T03:55:41.151Z,4.20
2023-05-09T03:58:09.712Z,4.73
2023-05-09T04:00:40.027Z,5.37
2023-05-09T04:03:09.172Z,4.30
2023-05-09T04:05:37.861Z,4.23
2023-05-09T04:08:07.124Z,4.67
2023-05-09T04:10:35.750Z,4.40
2023-05-09T04:13:04.692Z,3.90
2023-05-09T04:15:33.010Z,4.63
2023-05-09T04:18:03.684Z,5.87
2023-05-09T04:20:32.647Z,5.07
2023-05-09T04:23:01.759Z,5.43
2023-05-09T04:25:34.673Z,4.80
2023-05-09T04:28:04.003Z,5.20
2023-05-09T04:30:32.844Z,6.77
2023-05-09T04:33:03.230Z,5.50
2023-05-09T04:35:31.962Z,4.50
2023-05-09T04:38:00.971Z,5.67
2023-05-09T04:40:31.193Z,6.40
2023-05-09T04:43:02.082Z,5.67
2023-05-09T04:45:30.420Z,4.60
2023-05-09T04:47:59.224Z,7.80
2023-05-09T04:50:29.412Z,6.03
2023-05-09T04:52:58.051Z,7.47
2023-05-09T04:55:26.549Z,7.67
2023-05-09T04:57:55.412Z,7.67
2023-05-09T05:00:23.956Z,7.40
2023-05-09T05:02:52.962Z,7.60
2023-05-09T05:05:25.071Z,7.73
2023-05-09T05:07:56.248Z,7.70
2023-05-09T05:10:24.983Z,6.27
2023-05-09T05:12:53.597Z,5.60
2023-05-09T05:15:22.265Z,5.33
2023-05-09T05:17:50.943Z,5.13
2023-05-09T05:20:19.730Z,5.27
2023-05-09T05:22:48.144Z,4.80
2023-05-09T05:25:18.802Z,5.43
2023-05-09T05:27:47.320Z,5.00
2023-05-09T05:30:16.931Z,5.00
2023-05-09T05:32:45.951Z,5.10
2023-05-09T05:35:15.230Z,5.17
2023-05-09T05:37:44.543Z,4.23
2023-05-09T05:40:13.754Z,5.17
2023-05-09T05:42:44.632Z,6.23
2023-05-09T05:45:13.702Z,6.53
2023-05-09T05:47:42.453Z,5.33
2023-05-09T05:50:12.525Z,6.23
2023-05-09T05:52:42.841Z,6.97
2023-05-09T05:55:11.760Z,5.10
2023-05-09T05:57:41.378Z,6.37
2023-05-09T06:00:14.707Z,4.87
2023-05-09T06:02:45.042Z,5.30
2023-05-09T06:05:14.047Z,4.87
2023-05-09T06:07:44.468Z,5.53
2023-05-09T06:10:13.719Z,5.07
2023-05-09T06:12:42.347Z,5.07
2023-05-09T06:15:13.433Z,6.70
2023-05-09T06:17:42.088Z,5.80
2023-05-09T06:20:11.528Z,5.70
2023-05-09T06:22:40.245Z,5.73
2023-05-09T06:25:10.608Z,5.80
2023-05-09T06:27:39.501Z,5.40
2023-05-09T06:30:23.903Z,5.93
2023-05-09T06:32:56.209Z,6.30
2023-05-09T06:35:24.525Z,5.17
2023-05-09T06:37:53.188Z,4.57
2023-05-09T06:40:21.635Z,4.97
2023-05-09T06:42:50.144Z,6.60
2023-05-09T06:45:19.111Z,11.00
2023-05-09T06:47:48.062Z,13.20
2023-05-09T06:50:20.522Z,9.23
2023-05-09T06:52:49.688Z,8.60
2023-05-09T06:55:18.304Z,7.00
2023-05-09T06:57:47.114Z,7.63
2023-05-09T07:00:17.425Z,7.60
2023-05-09T07:02:46.703Z,7.00
2023-05-09T07:05:16.606Z,6.40
2023-05-09T07:07:46.776Z,7.97
2023-05-09T07:10:15.552Z,7.20
2023-05-09T07:12:44.161Z,7.63
2023-05-09T07:15:14.660Z,7.60
2023-05-09T07:17:47.339Z,7.00
2023-05-09T07:20:16.300Z,6.97
2023-05-09T07:22:46.374Z,6.67
2023-05-09T07:25:15.914Z,7.60
2023-05-09T07:27:44.904Z,7.60
2023-05-09T07:30:14.688Z,7.40
2023-05-09T07:32:45.428Z,6.83
2023-05-09T07:35:14.409Z,6.40
2023-05-09T07:37:43.294Z,6.67
2023-05-09T07:40:15.037Z,7.40
2023-05-09T07:42:50.120Z,6.97
2023-05-09T07:45:21.966Z,7.13
2023-05-09T07:47:53.065Z,7.13
2023-05-09T07:50:23.450Z,7.77
2023-05-09T07:52:52.986Z,7.03
2023-05-09T07:55:23.674Z,6.97
2023-05-09T07:57:52.625Z,8.27
2023-05-09T08:00:24.169Z,7.00
2023-05-09T08:02:53.335Z,6.73
2023-05-09T08:05:22.312Z,6.27
2023-05-09T08:07:51.287Z,6.57
2023-05-09T08:10:22.062Z,6.93
2023-05-09T08:12:52.960Z,7.10
2023-05-09T08:15:22.107Z,8.40
2023-05-09T08:17:50.864Z,7.47
2023-05-09T08:20:19.679Z,7.40
2023-05-09T08:22:48.204Z,7.73
2023-05-09T08:25:18.592Z,7.10
2023-05-09T08:27:47.968Z,8.07
2023-05-09T08:30:18.644Z,8.43
2023-05-09T08:32:47.494Z,6.23
2023-05-09T08:35:16.494Z,7.00
2023-05-09T08:37:48.194Z,7.33
2023-05-09T08:40:17.583Z,6.83
2023-05-09T08:42:47.437Z,7.27
2023-05-09T08:45:18.200Z,7.30
2023-05-09T08:47:47.805Z,6.80
2023-05-09T08:50:17.703Z,7.03
2023-05-09T08:52:46.741Z,7.90
2023-05-09T08:55:16.426Z,7.47
2023-05-09T08:57:45.270Z,7.47
2023-05-09T09:00:17.951Z,6.60
2023-05-09T09:02:50.265Z,7.80
2023-05-09T09:05:39.476Z,6.43
2023-05-09T09:08:09.126Z,6.53
2023-05-09T09:10:42.075Z,6.60
2023-05-09T09:13:11.964Z,6.40
2023-05-09T09:15:43.285Z,7.27
2023-05-09T09:18:14.736Z,7.87
2023-05-09T09:20:50.208Z,6.80
2023-05-09T09:23:20.944Z,6.97
2023-05-09T09:25:49.797Z,6.80
2023-05-09T09:28:18.872Z,6.93
2023-05-09T09:30:49.400Z,6.30
2023-05-09T09:33:23.623Z,5.23
2023-05-09T09:35:53.636Z,6.93
2023-05-09T09:38:23.114Z,7.60
2023-05-09T09:40:56.288Z,7.27
2023-05-09T09:43:32.363Z,9.27
2023-05-09T09:46:03.078Z,7.83
2023-05-09T09:48:35.416Z,6.30
2023-05-09T09:51:11.602Z,6.30
2023-05-09T09:53:41.405Z,8.43
2023-05-09T09:56:10.561Z,5.90
2023-05-09T09:58:39.417Z,7.03
2023-05-09T10:01:09.039Z,5.77
2023-05-09T10:03:40.537Z,8.03
2023-05-09T10:06:13.113Z,5.70
2023-05-09T10:08:42.492Z,6.43
2023-05-09T10:11:11.555Z,5.93
2023-05-09T10:13:40.815Z,5.50
2023-05-09T10:16:10.923Z,4.90
2023-05-09T10:18:43.031Z,6.00
2023-05-09T10:21:13.885Z,6.10
2023-05-09T10:23:44.842Z,5.30
2023-05-09T10:26:19.921Z,6.40
2023-05-09T10:28:50.240Z,4.83
2023-05-09T10:31:26.558Z,5.83
2023-05-09T10:34:03.461Z,4.37
2023-05-09T10:36:32.941Z,4.93
2023-05-09T10:39:01.813Z,6.63
2023-05-09T10:41:31.136Z,6.90
2023-05-09T10:44:00.580Z,5.20
2023-05-09T10:46:29.753Z,5.40
2023-05-09T10:49:01.573Z,4.90
2023-05-09T10:51:30.523Z,5.90
2023-05-09T10:53:59.668Z,4.60
2023-05-09T10:56:32.112Z,4.30
2023-05-09T10:59:01.195Z,5.50
2023-05-09T11:01:33.094Z,4.40
2023-05-09T11:04:04.243Z,6.77
2023-05-09T11:06:49.498Z,5.23
2023-05-09T11:09:29.596Z,4.60
2023-05-09T11:11:59.271Z,4.40
2023-05-09T11:14:34.375Z,5.10
2023-05-09T11:17:04.403Z,4.63
2023-05-09T11:19:59.224Z,4.53
2023-05-09T11:22:34.214Z,3.63
2023-05-09T11:25:07.730Z,4.53
2023-05-09T11:27:43.447Z,5.03
2023-05-09T11:30:14.835Z,4.23
2023-05-09T11:32:46.233Z,4.00
2023-05-09T11:35:18.565Z,3.90
2023-05-09T11:37:49.768Z,4.90
2023-05-09T11:40:20.248Z,4.60
2023-05-09T11:42:50.444Z,4.70
2023-05-09T11:45:19.644Z,4.50
2023-05-09T11:47:49.366Z,4.40
2023-05-09T11:50:21.856Z,3.93
2023-05-09T11:52:51.292Z,4.00
2023-05-09T11:55:22.726Z,4.10
2023-05-09T11:57:52.720Z,4.30
2023-05-09T12:00:23.185Z,3.93
2023-05-09T12:02:52.778Z,4.50
2023-05-09T12:05:24.356Z,4.13
2023-05-09T12:07:53.754Z,3.83
2023-05-09T12:10:25.119Z,3.57
2023-05-09T12:12:56.589Z,4.40
2023-05-09T12:15:25.788Z,3.53
2023-05-09T12:18:05.090Z,3.80
2023-05-09T12:20:46.160Z,3.70
2023-05-09T12:23:15.897Z,3.90
2023-05-09T12:25:49.882Z,3.97
2023-05-09T12:28:19.750Z,3.80
2023-05-09T12:30:48.832Z,4.23
2023-05-09T12:33:18.095Z,4.20
2023-05-09T12:35:49.867Z,3.30
2023-05-09T12:38:23.543Z,4.40
2023-05-09T12:41:03.474Z,3.43
2023-05-09T12:43:34.221Z,3.63
2023-05-09T12:46:03.570Z,3.40
2023-05-09T12:48:38.233Z,3.20
2023-05-09T12:51:08.883Z,4.10
2023-05-09T12:53:40.719Z,4.20
2023-05-09T12:56:14.413Z,3.73
2023-05-09T12:58:49.839Z,3.77
2023-05-09T13:01:21.678Z,3.30
2023-05-09T13:03:55.011Z,3.90
2023-05-09T13:06:25.167Z,3.50
2023-05-09T13:09:01.753Z,3.53
2023-05-09T13:11:33.728Z,3.50
2023-05-09T13:14:03.602Z,3.83
2023-05-09T13:16:32.386Z,3.00
2023-05-09T13:19:01.883Z,3.53
2023-05-09T13:21:31.768Z,3.70
2023-05-09T13:24:00.327Z,3.87
2023-05-09T13:26:29.665Z,3.37
2023-05-09T13:28:58.811Z,3.07
2023-05-09T13:31:27.626Z,3.50
2023-05-09T13:33:56.656Z,3.13
2023-05-09T13:36:25.251Z,3.80
2023-05-09T13:38:55.399Z,3.57
2023-05-09T13:41:24.191Z,4.97
2023-05-09T13:43:52.999Z,4.23
2023-05-09T13:46:21.714Z,4.23
2023-05-09T13:48:50.575Z,3.20
2023-05-09T13:51:19.353Z,4.50
2023-05-09T13:53:48.713Z,4.07
2023-05-09T13:56:19.935Z,3.60
2023-05-09T13:58:49.328Z,3.20
2023-05-09T14:01:18.062Z,3.53
2023-05-09T14:03:49.716Z,4.00
2023-05-09T14:06:18.434Z,6.07
2023-05-09T14:08:47.800Z,3.40
2023-05-09T14:11:16.737Z,3.17
2023-05-09T14:13:47.157Z,3.93
2023-05-09T14:16:16.042Z,3.40
2023-05-09T14:18:44.827Z,3.77
2023-05-09T14:21:13.986Z,4.43
2023-05-09T14:23:43.558Z,3.33
2023-05-09T14:26:12.898Z,4.23
2023-05-09T14:28:46.142Z,3.53
2023-05-09T14:31:17.540Z,4.30
2023-05-09T14:33:46.322Z,3.83
2023-05-09T14:36:15.202Z,2.87
2023-05-09T14:38:44.488Z,2.60
2023-05-09T14:41:15.576Z,3.23
2023-05-09T14:43:44.360Z,3.47
2023-05-09T14:46:13.400Z,3.40
2023-05-09T14:48:43.732Z,3.00
2023-05-09T14:51:13.164Z,3.03
2023-05-09T14:53:42.248Z,3.93
2023-05-09T14:56:11.944Z,3.40
2023-05-09T14:58:40.908Z,3.23
2023-05-09T15:01:09.908Z,3.83
2023-05-09T15:03:39.772Z,2.93
2023-05-09T15:06:09.496Z,3.43
2023-05-09T15:08:39.501Z,4.50
2023-05-09T15:11:09.480Z,4.23
2023-05-09T15:13:38.436Z,3.73
2023-05-09T15:16:07.564Z,3.10
2023-05-09T15:18:36.653Z,3.10
2023-05-09T15:21:06.183Z,2.77
2023-05-09T15:23:36.369Z,3.10
2023-05-09T15:26:05.180Z,4.40
2023-05-09T15:28:34.515Z,3.70
2023-05-09T15:31:04.475Z,3.27
2023-05-09T15:33:33.820Z,3.13
2023-05-09T15:36:03.466Z,4.07
2023-05-09T15:38:31.964Z,3.10
2023-05-09T15:41:03.321Z,3.00
2023-05-09T15:43:32.161Z,3.23
2023-05-09T15:46:01.410Z,3.20
2023-05-09T15:48:30.172Z,3.67
2023-05-09T15:50:59.207Z,3.37
2023-05-09T15:53:29.093Z,2.60
2023-05-09T15:55:58.561Z,3.63
2023-05-09T15:58:28.800Z,3.27
2023-05-09T16:00:57.606Z,3.30
2023-05-09T16:03:26.534Z,4.27
2023-05-09T16:05:55.484Z,4.07
2023-05-09T16:08:24.321Z,3.90
2023-05-09T16:10:53.290Z,3.37
2023-05-09T16:13:22.855Z,7.40
2023-05-09T16:15:54.222Z,4.40
2023-05-09T16:18:23.212Z,2.93
2023-05-09T16:20:52.496Z,3.40
2023-05-09T16:23:21.314Z,3.27
2023-05-09T16:25:51.059Z,3.70
2023-05-09T16:28:23.788Z,3.63
2023-05-09T16:30:54.631Z,2.73
2023-05-09T16:33:23.401Z,3.00
2023-05-09T16:35:52.726Z,3.87
2023-05-09T16:38:21.900Z,3.47
2023-05-09T16:40:51.492Z,4.07
2023-05-09T16:43:21.102Z,4.10
2023-05-09T16:45:50.256Z,3.70
2023-05-09T16:48:21.048Z,3.50
2023-05-09T16:50:53.825Z,2.80
2023-05-09T16:53:24.496Z,3.07
2023-05-09T16:55:55.281Z,3.67
2023-05-09T16:58:25.402Z,3.03
2023-05-09T17:00:55.219Z,4.23
2023-05-09T17:03:26.019Z,3.60
2023-05-09T17:05:55.418Z,4.70
2023-05-09T17:08:24.672Z,4.07
2023-05-09T17:10:54.052Z,4.00
2023-05-09T17:13:23.307Z,4.30
2023-05-09T17:15:52.897Z,3.60
2023-05-09T17:18:35.962Z,3.73
2023-05-09T17:21:08.252Z,3.33
2023-05-09T17:23:36.709Z,3.60
2023-05-09T17:26:05.773Z,3.00
2023-05-09T17:28:34.573Z,3.40
2023-05-09T17:31:03.574Z,3.33
2023-05-09T17:33:32.267Z,3.87
2023-05-09T17:36:01.878Z,4.80
2023-05-09T17:38:32.017Z,3.70
2023-05-09T17:41:01.012Z,3.80
2023-05-09T17:43:30.243Z,3.63
2023-05-09T17:45:59.365Z,3.80
2023-05-09T17:48:28.185Z,4.37
2023-05-09T17:50:57.412Z,3.87
2023-05-09T17:53:25.940Z,3.10
2023-05-09T17:55:55.873Z,4.80
2023-05-09T17:58:24.551Z,3.43
2023-05-09T18:00:55.445Z,3.83
2023-05-09T18:03:25.106Z,3.73
2023-05-09T18:05:53.829Z,3.60
2023-05-09T18:08:22.640Z,4.27
2023-05-09T18:10:51.724Z,3.87
2023-05-09T18:13:23.522Z,3.40
2023-05-09T18:15:54.820Z,4.30
2023-05-09T18:18:24.088Z,4.57
2023-05-09T18:20:53.402Z,8.20
2023-05-09T18:23:22.269Z,6.17
2023-05-09T18:25:51.214Z,17.07
2023-05-09T18:28:24.751Z,5.93
2023-05-09T18:30:59.390Z,4.77
2023-05-09T18:33:29.262Z,4.20
2023-05-09T18:35:58.118Z,4.97
2023-05-09T18:38:27.570Z,4.40
2023-05-09T18:41:00.662Z,4.20
2023-05-09T18:43:31.172Z,3.90
2023-05-09T18:46:01.366Z,3.73
2023-05-09T18:48:31.404Z,3.60
2023-05-09T18:51:00.144Z,4.40
2023-05-09T18:53:29.288Z,5.20
2023-05-09T18:55:58.316Z,3.87
2023-05-09T18:58:28.886Z,4.77
2023-05-09T19:00:58.395Z,4.57
2023-05-09T19:03:29.684Z,4.60
2023-05-09T19:06:00.494Z,4.17
2023-05-09T19:08:29.375Z,4.57
2023-05-09T19:10:58.058Z,4.90
2023-05-09T19:13:27.339Z,3.70
2023-05-09T19:15:57.201Z,3.50
2023-05-09T19:18:25.828Z,3.63
2023-05-09T19:20:57.094Z,3.50
2023-05-09T19:23:26.708Z,4.20
2023-05-09T19:25:56.075Z,4.33
2023-05-09T19:28:25.314Z,3.90
2023-05-09T19:30:55.220Z,3.97
2023-05-09T19:33:25.301Z,4.10
2023-05-09T19:35:55.853Z,5.33
2023-05-09T19:38:24.437Z,3.53
2023-05-09T19:40:53.371Z,4.33
2023-05-09T19:43:22.536Z,4.37
2023-05-09T19:45:50.971Z,4.20
2023-05-09T19:48:19.533Z,3.77
2023-05-09T19:50:48.135Z,3.93
2023-05-09T19:53:18.318Z,3.83
2023-05-09T19:55:48.294Z,3.93
2023-05-09T19:58:18.006Z,4.47
2023-05-09T20:00:47.077Z,4.00
2023-05-09T20:03:16.561Z,4.00
2023-05-09T20:08:36.683Z,3.73
2023-05-09T20:11:05.937Z,3.93
2023-05-09T20:13:34.650Z,3.90
2023-05-09T20:16:04.284Z,3.40
2023-05-09T20:18:33.846Z,4.73
2023-05-09T20:21:02.194Z,3.30
2023-05-09T20:23:31.610Z,3.87
2023-05-09T20:26:01.940Z,4.00
2023-05-09T20:28:30.876Z,3.33
2023-05-09T20:30:59.519Z,4.10
2023-05-09T20:33:28.889Z,4.00
2023-05-09T20:35:57.310Z,4.80
2023-05-09T20:38:26.162Z,4.50
2023-05-09T20:40:55.237Z,4.20
2023-05-09T20:43:25.451Z,3.87
2023-05-09T20:45:54.237Z,4.77
2023-05-09T20:48:24.110Z,4.63
2023-05-09T20:50:53.354Z,4.73
2023-05-09T20:53:26.517Z,4.23
2023-05-09T20:55:55.700Z,3.67
2023-05-09T20:58:26.014Z,4.00
2023-05-09T21:00:54.739Z,4.93
2023-05-09T21:03:23.507Z,4.10
2023-05-09T21:05:52.049Z,3.50
2023-05-09T21:08:20.725Z,3.67
2023-05-09T21:10:48.996Z,4.00
2023-05-09T21:13:17.770Z,5.57
2023-05-09T21:15:50.359Z,5.53
2023-05-09T21:18:21.690Z,5.30
2023-05-09T21:20:50.846Z,5.10
2023-05-09T21:23:19.945Z,4.77
2023-05-09T21:25:48.816Z,5.03
2023-05-09T21:28:17.902Z,4.93
2023-05-09T21:30:52.493Z,3.67
2023-05-09T21:33:21.797Z,3.90
2023-05-09T21:35:50.561Z,3.77
2023-05-09T21:38:19.365Z,5.90
2023-05-09T21:40:48.158Z,3.70
2023-05-09T21:43:18.370Z,3.67
2023-05-09T21:45:49.093Z,3.97
2023-05-09T21:48:17.982Z,4.77
2023-05-09T21:50:46.821Z,3.80
2023-05-09T21:53:15.840Z,3.90
2023-05-09T21:55:44.353Z,3.50
2023-05-09T21:58:16.093Z,3.60
2023-05-09T22:00:44.677Z,4.30
2023-05-09T22:03:15.257Z,3.80
2023-05-09T22:05:43.725Z,4.50
2023-05-09T22:08:12.628Z,3.63
2023-05-09T22:10:41.473Z,3.63
2023-05-09T22:13:10.355Z,3.60
2023-05-09T22:15:38.853Z,3.57
2023-05-09T22:18:08.242Z,3.33
2023-05-09T22:20:38.664Z,4.00
2023-05-09T22:23:07.161Z,4.57
2023-05-09T22:25:35.690Z,3.77
2023-05-09T22:28:04.603Z,3.90
2023-05-09T22:30:32.937Z,3.57
2023-05-09T22:33:01.611Z,4.00
2023-05-09T22:35:30.464Z,3.13
2023-05-09T22:38:00.800Z,4.20
2023-05-09T22:40:29.780Z,3.77
2023-05-09T22:42:58.683Z,4.57
2023-05-09T22:45:27.894Z,4.10
2023-05-09T22:47:57.236Z,4.20
2023-05-09T22:50:26.002Z,4.23
2023-05-09T22:52:54.797Z,3.43
2023-05-09T22:55:25.554Z,3.77
2023-05-09T22:57:54.363Z,4.00
2023-05-09T23:00:23.568Z,3.27
2023-05-09T23:02:52.932Z,3.93
2023-05-09T23:05:22.135Z,3.60
2023-05-09T23:07:52.093Z,3.97
2023-05-09T23:10:21.140Z,3.80
2023-05-09T23:12:51.849Z,3.70
2023-05-09T23:15:20.915Z,3.27
2023-05-09T23:17:49.725Z,3.70
2023-05-09T23:20:18.677Z,3.90
2023-05-09T23:22:48.036Z,3.90
2023-05-09T23:25:16.878Z,4.13
2023-05-09T23:27:47.162Z,3.83
2023-05-09T23:30:17.564Z,3.70
2023-05-09T23:32:46.378Z,3.40
2023-05-09T23:35:15.673Z,3.07
2023-05-09T23:37:44.393Z,3.77
2023-05-09T23:40:14.833Z,3.80
2023-05-09T23:42:44.111Z,4.20
2023-05-09T23:45:13.679Z,3.70
2023-05-09T23:47:43.954Z,3.77
2023-05-09T23:50:13.836Z,3.23
2023-05-09T23:52:43.572Z,3.07
2023-05-09T23:55:12.105Z,3.00
2023-05-09T23:57:40.852Z,3.13
